sensor_id;sensor_type;location;lat;lon;timestamp;temperature;humidity
3614;DHT22;1821;50.936;6.854;2023-03-25T00:00:38;10.10;99.90
3614;DHT22;1821;50.936;6.854;2023-03-25T00:01:20;9.50;99.90
3614;DHT22;1821;50.936;6.854;2023-03-25T00:02:06;9.50;99.90
3614;DHT22;1821;50.936;6.854;2023-03-25T00:02:50;9.40;99.90
3614;DHT22;1821;50.936;6.854;2023-03-25T00:03:35;9.80;99.90
3614;DHT22;1821;50.936;6.854;2023-03-25T00:04:24;9.30;99.90
3614;DHT22;1821;50.936;6.854;2023-03-25T00:05:08;9.00;99.90
3614;DHT22;1821;50.936;6.854;2023-03-25T00:05:52;9.20;99.90
3614;DHT22;1821;50.936;6.854;2023-03-25T00:06:35;9.30;99.90
3614;DHT22;1821;50.936;6.854;2023-03-25T00:07:20;9.40;99.90
3614;DHT22;1821;50.936;6.854;2023-03-25T00:08:03;9.80;99.90
3614;DHT22;1821;50.936;6.854;2023-03-25T00:08:45;9.20;99.90
3614;DHT22;1821;50.936;6.854;2023-03-25T00:09:29;9.40;99.90
3614;DHT22;1821;50.936;6.854;2023-03-25T00:10:13;9.80;99.90
3614;DHT22;1821;50.936;6.854;2023-03-25T00:10:57;9.20;99.90
3614;DHT22;1821;50.936;6.854;2023-03-25T00:11:39;9.30;99.90
3614;DHT22;1821;50.936;6.854;2023-03-25T00:12:21;9.10;99.90
3614;DHT22;1821;50.936;6.854;2023-03-25T00:13:02;9.20;99.90
3614;DHT22;1821;50.936;6.854;2023-03-25T00:13:46;9.30;99.90
3614;DHT22;1821;50.936;6.854;2023-03-25T00:14:28;9.50;99.90
3614;DHT22;1821;50.936;6.854;2023-03-25T00:15:13;9.20;99.90
3614;DHT22;1821;50.936;6.854;2023-03-25T00:15:57;9.20;99.90
3614;DHT22;1821;50.936;6.854;2023-03-25T00:16:39;9.40;99.90
3614;DHT22;1821;50.936;6.854;2023-03-25T00:17:23;9.50;99.90
3614;DHT22;1821;50.936;6.854;2023-03-25T00:18:07;9.50;99.90
3614;DHT22;1821;50.936;6.854;2023-03-25T00:18:49;9.90;99.90
3614;DHT22;1821;50.936;6.854;2023-03-25T00:19:32;9.40;99.90
3614;DHT22;1821;50.936;6.854;2023-03-25T00:20:14;9.40;99.90
3614;DHT22;1821;50.936;6.854;2023-03-25T00:20:56;9.50;99.90
3614;DHT22;1821;50.936;6.854;2023-03-25T00:21:39;9.60;99.90
3614;DHT22;1821;50.936;6.854;2023-03-25T00:22:22;9.90;99.90
3614;DHT22;1821;50.936;6.854;2023-03-25T00:23:04;9.70;99.90
3614;DHT22;1821;50.936;6.854;2023-03-25T00:23:46;9.50;99.90
3614;DHT22;1821;50.936;6.854;2023-03-25T00:24:27;9.70;99.90
3614;DHT22;1821;50.936;6.854;2023-03-25T00:25:14;9.80;99.90
3614;DHT22;1821;50.936;6.854;2023-03-25T00:26:01;9.80;99.90
3614;DHT22;1821;50.936;6.854;2023-03-25T00:26:44;9.80;99.90
3614;DHT22;1821;50.936;6.854;2023-03-25T00:27:26;9.70;99.90
3614;DHT22;1821;50.936;6.854;2023-03-25T00:28:09;9.60;99.90
3614;DHT22;1821;50.936;6.854;2023-03-25T00:28:50;9.80;99.90
3614;DHT22;1821;50.936;6.854;2023-03-25T00:29:32;10.50;99.90
3614;DHT22;1821;50.936;6.854;2023-03-25T00:30:15;9.90;99.90
3614;DHT22;1821;50.936;6.854;2023-03-25T00:30:59;9.70;99.90
3614;DHT22;1821;50.936;6.854;2023-03-25T00:31:42;9.90;99.90
3614;DHT22;1821;50.936;6.854;2023-03-25T00:32:24;9.80;99.90
3614;DHT22;1821;50.936;6.854;2023-03-25T00:33:06;9.70;99.90
3614;DHT22;1821;50.936;6.854;2023-03-25T00:33:51;9.40;99.90
3614;DHT22;1821;50.936;6.854;2023-03-25T00:34:33;9.60;99.90
3614;DHT22;1821;50.936;6.854;2023-03-25T00:35:15;9.40;99.90
3614;DHT22;1821;50.936;6.854;2023-03-25T00:36:00;9.40;99.90
3614;DHT22;1821;50.936;6.854;2023-03-25T00:36:45;9.70;99.90
3614;DHT22;1821;50.936;6.854;2023-03-25T00:37:27;9.70;99.90
3614;DHT22;1821;50.936;6.854;2023-03-25T00:38:10;9.40;99.90
3614;DHT22;1821;50.936;6.854;2023-03-25T00:38:54;9.60;99.90
3614;DHT22;1821;50.936;6.854;2023-03-25T00:39:36;9.80;99.90
3614;DHT22;1821;50.936;6.854;2023-03-25T00:40:18;9.60;99.90
3614;DHT22;1821;50.936;6.854;2023-03-25T00:41:58;9.80;99.90
3614;DHT22;1821;50.936;6.854;2023-03-25T00:42:45;9.70;99.90
3614;DHT22;1821;50.936;6.854;2023-03-25T00:43:31;9.90;99.90
3614;DHT22;1821;50.936;6.854;2023-03-25T00:44:13;9.60;99.90
3614;DHT22;1821;50.936;6.854;2023-03-25T00:44:54;10.10;99.90
3614;DHT22;1821;50.936;6.854;2023-03-25T00:45:36;9.80;99.90
3614;DHT22;1821;50.936;6.854;2023-03-25T00:46:18;9.80;99.90
3614;DHT22;1821;50.936;6.854;2023-03-25T00:47:01;9.80;99.90
3614;DHT22;1821;50.936;6.854;2023-03-25T00:47:43;10.00;99.90
3614;DHT22;1821;50.936;6.854;2023-03-25T00:48:25;9.60;99.90
3614;DHT22;1821;50.936;6.854;2023-03-25T00:49:10;9.60;99.90
3614;DHT22;1821;50.936;6.854;2023-03-25T00:49:53;9.80;99.90
3614;DHT22;1821;50.936;6.854;2023-03-25T00:50:34;9.70;99.90
3614;DHT22;1821;50.936;6.854;2023-03-25T00:51:17;9.80;99.90
3614;DHT22;1821;50.936;6.854;2023-03-25T00:52:02;9.80;99.90
3614;DHT22;1821;50.936;6.854;2023-03-25T00:52:45;9.60;99.90
3614;DHT22;1821;50.936;6.854;2023-03-25T00:53:26;9.80;99.90
3614;DHT22;1821;50.936;6.854;2023-03-25T00:54:08;9.90;99.90
3614;DHT22;1821;50.936;6.854;2023-03-25T00:54:52;9.80;99.90
3614;DHT22;1821;50.936;6.854;2023-03-25T00:55:34;9.60;99.90
3614;DHT22;1821;50.936;6.854;2023-03-25T00:56:16;9.90;99.90
3614;DHT22;1821;50.936;6.854;2023-03-25T00:56:58;9.90;99.90
3614;DHT22;1821;50.936;6.854;2023-03-25T00:57:40;10.10;99.90
3614;DHT22;1821;50.936;6.854;2023-03-25T00:58:21;10.00;99.90
3614;DHT22;1821;50.936;6.854;2023-03-25T00:59:03;10.10;99.90
3614;DHT22;1821;50.936;6.854;2023-03-25T00:59:45;10.10;99.90
3614;DHT22;1821;50.936;6.854;2023-03-25T01:00:32;9.60;99.90
3614;DHT22;1821;50.936;6.854;2023-03-25T01:01:16;11.10;99.90
3614;DHT22;1821;50.936;6.854;2023-03-25T01:01:59;9.80;99.90
3614;DHT22;1821;50.936;6.854;2023-03-25T01:02:41;10.50;99.90
3614;DHT22;1821;50.936;6.854;2023-03-25T01:03:25;10.10;99.90
3614;DHT22;1821;50.936;6.854;2023-03-25T01:04:09;10.10;99.90
3614;DHT22;1821;50.936;6.854;2023-03-25T01:04:53;9.70;99.90
3614;DHT22;1821;50.936;6.854;2023-03-25T01:05:36;10.10;99.90
3614;DHT22;1821;50.936;6.854;2023-03-25T01:06:24;9.80;99.90
3614;DHT22;1821;50.936;6.854;2023-03-25T01:07:09;9.90;99.90
3614;DHT22;1821;50.936;6.854;2023-03-25T01:07:51;9.60;99.90
3614;DHT22;1821;50.936;6.854;2023-03-25T01:08:35;10.00;99.90
3614;DHT22;1821;50.936;6.854;2023-03-25T01:09:18;9.90;99.90
3614;DHT22;1821;50.936;6.854;2023-03-25T01:10:00;9.70;99.90
3614;DHT22;1821;50.936;6.854;2023-03-25T01:10:45;10.20;99.90
3614;DHT22;1821;50.936;6.854;2023-03-25T01:11:29;9.80;99.90
3614;DHT22;1821;50.936;6.854;2023-03-25T01:12:16;10.00;99.90
3614;DHT22;1821;50.936;6.854;2023-03-25T01:12:59;9.60;99.90
3614;DHT22;1821;50.936;6.854;2023-03-25T01:13:41;9.80;99.90
3614;DHT22;1821;50.936;6.854;2023-03-25T01:14:23;9.70;99.90
3614;DHT22;1821;50.936;6.854;2023-03-25T01:15:09;9.80;99.90
3614;DHT22;1821;50.936;6.854;2023-03-25T01:15:51;9.50;99.90
3614;DHT22;1821;50.936;6.854;2023-03-25T01:16:33;9.90;99.90
3614;DHT22;1821;50.936;6.854;2023-03-25T01:17:16;9.60;99.90
3614;DHT22;1821;50.936;6.854;2023-03-25T01:17:58;9.60;99.90
3614;DHT22;1821;50.936;6.854;2023-03-25T01:18:40;9.70;99.90
3614;DHT22;1821;50.936;6.854;2023-03-25T01:19:22;9.40;99.90
3614;DHT22;1821;50.936;6.854;2023-03-25T01:20:04;9.80;99.90
3614;DHT22;1821;50.936;6.854;2023-03-25T01:20:46;9.60;99.90
3614;DHT22;1821;50.936;6.854;2023-03-25T01:21:31;9.70;99.90
3614;DHT22;1821;50.936;6.854;2023-03-25T01:22:17;9.70;99.90
3614;DHT22;1821;50.936;6.854;2023-03-25T01:22:59;9.70;99.90
3614;DHT22;1821;50.936;6.854;2023-03-25T01:23:41;9.80;99.90
3614;DHT22;1821;50.936;6.854;2023-03-25T01:24:25;9.50;99.90
3614;DHT22;1821;50.936;6.854;2023-03-25T01:25:07;9.40;99.90
3614;DHT22;1821;50.936;6.854;2023-03-25T01:25:51;9.60;99.90
3614;DHT22;1821;50.936;6.854;2023-03-25T01:26:34;9.60;99.90
3614;DHT22;1821;50.936;6.854;2023-03-25T01:27:16;11.80;99.90
3614;DHT22;1821;50.936;6.854;2023-03-25T01:27:58;9.70;99.90
3614;DHT22;1821;50.936;6.854;2023-03-25T01:28:41;9.70;99.90
3614;DHT22;1821;50.936;6.854;2023-03-25T01:29:23;9.50;99.90
3614;DHT22;1821;50.936;6.854;2023-03-25T01:30:05;9.40;99.90
3614;DHT22;1821;50.936;6.854;2023-03-25T01:30:48;9.50;99.90
3614;DHT22;1821;50.936;6.854;2023-03-25T01:31:32;9.80;99.90
3614;DHT22;1821;50.936;6.854;2023-03-25T01:32:14;9.80;99.90
3614;DHT22;1821;50.936;6.854;2023-03-25T01:32:56;9.80;99.90
3614;DHT22;1821;50.936;6.854;2023-03-25T01:33:38;9.70;99.90
3614;DHT22;1821;50.936;6.854;2023-03-25T01:34:20;9.70;99.90
3614;DHT22;1821;50.936;6.854;2023-03-25T01:35:02;9.90;99.90
3614;DHT22;1821;50.936;6.854;2023-03-25T01:35:46;9.50;99.90
3614;DHT22;1821;50.936;6.854;2023-03-25T01:36:30;9.70;99.90
3614;DHT22;1821;50.936;6.854;2023-03-25T01:37:12;9.80;99.90
3614;DHT22;1821;50.936;6.854;2023-03-25T01:37:54;9.80;99.90
3614;DHT22;1821;50.936;6.854;2023-03-25T01:38:36;10.00;99.90
3614;DHT22;1821;50.936;6.854;2023-03-25T01:39:18;9.60;99.90
3614;DHT22;1821;50.936;6.854;2023-03-25T01:40:00;10.10;99.90
3614;DHT22;1821;50.936;6.854;2023-03-25T01:40:44;10.00;99.90
3614;DHT22;1821;50.936;6.854;2023-03-25T01:41:27;9.60;99.90
3614;DHT22;1821;50.936;6.854;2023-03-25T01:42:23;10.00;99.90
3614;DHT22;1821;50.936;6.854;2023-03-25T01:43:09;9.70;99.90
3614;DHT22;1821;50.936;6.854;2023-03-25T01:44:07;9.90;99.90
3614;DHT22;1821;50.936;6.854;2023-03-25T01:45:32;9.80;99.90
3614;DHT22;1821;50.936;6.854;2023-03-25T01:46:15;9.60;99.90
3614;DHT22;1821;50.936;6.854;2023-03-25T01:47:02;9.80;99.90
3614;DHT22;1821;50.936;6.854;2023-03-25T01:47:48;10.10;99.90
3614;DHT22;1821;50.936;6.854;2023-03-25T01:48:36;9.60;99.90
3614;DHT22;1821;50.936;6.854;2023-03-25T01:49:23;9.90;99.90
3614;DHT22;1821;50.936;6.854;2023-03-25T01:50:07;9.80;99.90
3614;DHT22;1821;50.936;6.854;2023-03-25T01:50:58;10.00;99.90
3614;DHT22;1821;50.936;6.854;2023-03-25T01:51:43;9.80;99.90
3614;DHT22;1821;50.936;6.854;2023-03-25T01:52:28;9.80;99.90
3614;DHT22;1821;50.936;6.854;2023-03-25T01:53:11;9.80;99.90
3614;DHT22;1821;50.936;6.854;2023-03-25T01:53:53;10.20;99.90
3614;DHT22;1821;50.936;6.854;2023-03-25T01:54:35;9.60;99.90
3614;DHT22;1821;50.936;6.854;2023-03-25T01:55:19;10.40;99.90
3614;DHT22;1821;50.936;6.854;2023-03-25T01:56:03;9.50;99.90
3614;DHT22;1821;50.936;6.854;2023-03-25T01:56:48;9.60;99.90
3614;DHT22;1821;50.936;6.854;2023-03-25T01:57:30;9.60;99.90
3614;DHT22;1821;50.936;6.854;2023-03-25T01:58:15;9.40;99.90
3614;DHT22;1821;50.936;6.854;2023-03-25T01:59:01;9.90;99.90
3614;DHT22;1821;50.936;6.854;2023-03-25T01:59:44;9.40;99.90
3614;DHT22;1821;50.936;6.854;2023-03-25T02:00:28;9.30;99.90
3614;DHT22;1821;50.936;6.854;2023-03-25T02:01:11;9.60;1.00
3614;DHT22;1821;50.936;6.854;2023-03-25T02:01:55;9.20;99.90
3614;DHT22;1821;50.936;6.854;2023-03-25T02:02:39;9.60;99.90
3614;DHT22;1821;50.936;6.854;2023-03-25T02:03:22;9.60;99.90
3614;DHT22;1821;50.936;6.854;2023-03-25T02:04:05;9.20;99.90
3614;DHT22;1821;50.936;6.854;2023-03-25T02:04:56;9.50;99.90
3614;DHT22;1821;50.936;6.854;2023-03-25T02:06:02;9.60;99.90
3614;DHT22;1821;50.936;6.854;2023-03-25T02:06:49;9.60;99.90
3614;DHT22;1821;50.936;6.854;2023-03-25T02:07:34;9.40;99.90
3614;DHT22;1821;50.936;6.854;2023-03-25T02:08:19;9.20;99.90
3614;DHT22;1821;50.936;6.854;2023-03-25T02:09:04;9.50;99.90
3614;DHT22;1821;50.936;6.854;2023-03-25T02:09:53;9.30;99.90
3614;DHT22;1821;50.936;6.854;2023-03-25T02:10:35;9.20;1.00
3614;DHT22;1821;50.936;6.854;2023-03-25T02:11:18;9.00;1.00
3614;DHT22;1821;50.936;6.854;2023-03-25T02:12:00;9.00;1.00
3614;DHT22;1821;50.936;6.854;2023-03-25T02:12:44;9.00;1.00
3614;DHT22;1821;50.936;6.854;2023-03-25T02:13:27;9.10;1.00
3614;DHT22;1821;50.936;6.854;2023-03-25T02:14:13;9.30;1.00
3614;DHT22;1821;50.936;6.854;2023-03-25T02:14:57;9.20;1.00
3614;DHT22;1821;50.936;6.854;2023-03-25T02:17:11;9.00;1.00
3614;DHT22;1821;50.936;6.854;2023-03-25T02:21:14;9.10;1.00
3614;DHT22;1821;50.936;6.854;2023-03-25T02:24:31;9.30;24.80
3614;DHT22;1821;50.936;6.854;2023-03-25T02:27:29;9.20;97.00
3614;DHT22;1821;50.936;6.854;2023-03-25T02:28:41;9.00;99.90
3614;DHT22;1821;50.936;6.854;2023-03-25T02:39:23;9.00;99.90
3614;DHT22;1821;50.936;6.854;2023-03-25T02:42:36;8.70;1.00
3614;DHT22;1821;50.936;6.854;2023-03-25T02:44:57;8.90;1.00
3614;DHT22;1821;50.936;6.854;2023-03-25T02:45:34;8.90;99.90
3614;DHT22;1821;50.936;6.854;2023-03-25T02:46:18;9.20;1.00
3614;DHT22;1821;50.936;6.854;2023-03-25T02:47:08;8.90;1.00
3614;DHT22;1821;50.936;6.854;2023-03-25T02:47:55;8.60;1.00
3614;DHT22;1821;50.936;6.854;2023-03-25T02:49:05;8.10;1.00
3614;DHT22;1821;50.936;6.854;2023-03-25T02:49:55;8.60;1.00
3614;DHT22;1821;50.936;6.854;2023-03-25T02:50:42;8.60;1.00
3614;DHT22;1821;50.936;6.854;2023-03-25T02:51:32;9.00;1.00
3614;DHT22;1821;50.936;6.854;2023-03-25T02:52:22;8.80;1.00
3614;DHT22;1821;50.936;6.854;2023-03-25T02:53:09;8.40;1.00
3614;DHT22;1821;50.936;6.854;2023-03-25T02:53:54;8.40;1.00
3614;DHT22;1821;50.936;6.854;2023-03-25T02:54:38;8.50;1.00
3614;DHT22;1821;50.936;6.854;2023-03-25T02:55:22;8.60;1.00
3614;DHT22;1821;50.936;6.854;2023-03-25T02:56:09;8.70;1.00
3614;DHT22;1821;50.936;6.854;2023-03-25T02:56:53;8.50;1.00
3614;DHT22;1821;50.936;6.854;2023-03-25T02:57:40;8.50;1.00
3614;DHT22;1821;50.936;6.854;2023-03-25T02:58:26;8.70;1.00
3614;DHT22;1821;50.936;6.854;2023-03-25T02:59:11;9.00;1.00
3614;DHT22;1821;50.936;6.854;2023-03-25T02:59:57;9.20;99.90
3614;DHT22;1821;50.936;6.854;2023-03-25T03:00:40;8.90;1.00
3614;DHT22;1821;50.936;6.854;2023-03-25T03:01:24;9.00;99.90
3614;DHT22;1821;50.936;6.854;2023-03-25T03:02:09;9.00;1.00
3614;DHT22;1821;50.936;6.854;2023-03-25T03:02:57;8.70;99.90
3614;DHT22;1821;50.936;6.854;2023-03-25T03:03:44;7.50;99.90
3614;DHT22;1821;50.936;6.854;2023-03-25T03:04:26;8.70;99.90
3614;DHT22;1821;50.936;6.854;2023-03-25T03:05:30;8.80;99.90
3614;DHT22;1821;50.936;6.854;2023-03-25T03:06:16;8.90;81.90
3614;DHT22;1821;50.936;6.854;2023-03-25T03:06:59;8.90;99.90
3614;DHT22;1821;50.936;6.854;2023-03-25T03:07:44;9.10;99.90
3614;DHT22;1821;50.936;6.854;2023-03-25T03:09:37;9.10;1.00
3614;DHT22;1821;50.936;6.854;2023-03-25T03:10:44;9.10;1.00
3614;DHT22;1821;50.936;6.854;2023-03-25T03:15:43;9.10;1.00
3614;DHT22;1821;50.936;6.854;2023-03-25T03:16:27;9.10;1.00
3614;DHT22;1821;50.936;6.854;2023-03-25T03:18:02;9.10;1.00
3614;DHT22;1821;50.936;6.854;2023-03-25T03:19:01;9.30;1.00
3614;DHT22;1821;50.936;6.854;2023-03-25T03:20:20;8.90;1.00
3614;DHT22;1821;50.936;6.854;2023-03-25T03:21:13;9.20;1.00
3614;DHT22;1821;50.936;6.854;2023-03-25T03:22:08;9.40;1.00
3614;DHT22;1821;50.936;6.854;2023-03-25T03:24:28;8.90;1.00
3614;DHT22;1821;50.936;6.854;2023-03-25T03:28:54;8.80;99.90
3614;DHT22;1821;50.936;6.854;2023-03-25T03:30:28;8.90;1.00
3614;DHT22;1821;50.936;6.854;2023-03-25T03:31:22;9.40;1.00
3614;DHT22;1821;50.936;6.854;2023-03-25T03:33:39;9.00;99.90
3614;DHT22;1821;50.936;6.854;2023-03-25T03:34:30;9.10;1.00
3614;DHT22;1821;50.936;6.854;2023-03-25T03:35:21;9.10;1.00
3614;DHT22;1821;50.936;6.854;2023-03-25T03:36:09;8.90;1.00
3614;DHT22;1821;50.936;6.854;2023-03-25T03:36:56;9.20;1.00
3614;DHT22;1821;50.936;6.854;2023-03-25T03:37:46;9.00;1.00
3614;DHT22;1821;50.936;6.854;2023-03-25T03:38:39;9.30;1.00
3614;DHT22;1821;50.936;6.854;2023-03-25T03:39:31;9.00;1.00
3614;DHT22;1821;50.936;6.854;2023-03-25T03:40:17;9.00;1.00
3614;DHT22;1821;50.936;6.854;2023-03-25T03:41:05;9.10;1.00
3614;DHT22;1821;50.936;6.854;2023-03-25T03:41:53;8.80;1.00
3614;DHT22;1821;50.936;6.854;2023-03-25T03:43:03;9.30;1.00
3614;DHT22;1821;50.936;6.854;2023-03-25T03:44:06;9.10;99.90
3614;DHT22;1821;50.936;6.854;2023-03-25T03:44:52;8.70;1.00
3614;DHT22;1821;50.936;6.854;2023-03-25T03:45:43;9.10;1.00
3614;DHT22;1821;50.936;6.854;2023-03-25T03:46:29;9.30;1.00
3614;DHT22;1821;50.936;6.854;2023-03-25T03:47:17;8.90;1.00
3614;DHT22;1821;50.936;6.854;2023-03-25T03:48:02;8.50;1.00
3614;DHT22;1821;50.936;6.854;2023-03-25T03:48:55;8.50;1.00
3614;DHT22;1821;50.936;6.854;2023-03-25T03:49:42;8.70;1.00
3614;DHT22;1821;50.936;6.854;2023-03-25T03:50:30;8.60;1.00
3614;DHT22;1821;50.936;6.854;2023-03-25T03:52:32;8.40;1.00
3614;DHT22;1821;50.936;6.854;2023-03-25T03:53:28;8.40;1.00
3614;DHT22;1821;50.936;6.854;2023-03-25T03:54:27;8.90;1.00
3614;DHT22;1821;50.936;6.854;2023-03-25T03:55:16;8.90;99.90
3614;DHT22;1821;50.936;6.854;2023-03-25T03:56:09;8.60;1.00
3614;DHT22;1821;50.936;6.854;2023-03-25T03:57:00;8.70;1.00
3614;DHT22;1821;50.936;6.854;2023-03-25T03:58:01;8.80;1.00
3614;DHT22;1821;50.936;6.854;2023-03-25T03:58:45;8.50;1.00
3614;DHT22;1821;50.936;6.854;2023-03-25T04:00:09;8.80;1.00
3614;DHT22;1821;50.936;6.854;2023-03-25T04:01:43;9.00;1.00
3614;DHT22;1821;50.936;6.854;2023-03-25T04:02:39;8.60;1.00
3614;DHT22;1821;50.936;6.854;2023-03-25T04:03:31;8.60;99.90
3614;DHT22;1821;50.936;6.854;2023-03-25T04:04:21;8.80;1.00
3614;DHT22;1821;50.936;6.854;2023-03-25T04:05:10;9.10;1.00
3614;DHT22;1821;50.936;6.854;2023-03-25T04:06:00;8.90;1.00
3614;DHT22;1821;50.936;6.854;2023-03-25T04:07:14;8.80;1.00
3614;DHT22;1821;50.936;6.854;2023-03-25T04:08:17;9.00;99.90
3614;DHT22;1821;50.936;6.854;2023-03-25T04:09:18;8.90;99.90
3614;DHT22;1821;50.936;6.854;2023-03-25T04:10:14;8.90;99.90
3614;DHT22;1821;50.936;6.854;2023-03-25T04:11:05;9.20;1.00
3614;DHT22;1821;50.936;6.854;2023-03-25T04:11:53;8.80;99.90
3614;DHT22;1821;50.936;6.854;2023-03-25T04:12:40;8.70;99.90
3614;DHT22;1821;50.936;6.854;2023-03-25T04:13:27;8.90;99.90
3614;DHT22;1821;50.936;6.854;2023-03-25T04:14:12;8.70;1.00
3614;DHT22;1821;50.936;6.854;2023-03-25T04:14:55;8.70;1.00
3614;DHT22;1821;50.936;6.854;2023-03-25T04:15:37;8.90;99.90
3614;DHT22;1821;50.936;6.854;2023-03-25T04:16:20;9.00;99.90
3614;DHT22;1821;50.936;6.854;2023-03-25T04:17:04;8.70;1.00
3614;DHT22;1821;50.936;6.854;2023-03-25T04:17:49;8.70;99.90
3614;DHT22;1821;50.936;6.854;2023-03-25T04:18:31;9.20;99.90
3614;DHT22;1821;50.936;6.854;2023-03-25T04:19:14;9.10;99.90
3614;DHT22;1821;50.936;6.854;2023-03-25T04:19:59;8.90;99.90
3614;DHT22;1821;50.936;6.854;2023-03-25T04:20:42;8.80;99.90
3614;DHT22;1821;50.936;6.854;2023-03-25T04:21:25;9.10;99.90
3614;DHT22;1821;50.936;6.854;2023-03-25T04:22:10;9.30;1.00
3614;DHT22;1821;50.936;6.854;2023-03-25T04:22:54;9.40;1.00
3614;DHT22;1821;50.936;6.854;2023-03-25T04:23:36;8.90;99.90
3614;DHT22;1821;50.936;6.854;2023-03-25T04:24:22;9.00;99.90
3614;DHT22;1821;50.936;6.854;2023-03-25T04:25:06;8.80;1.00
3614;DHT22;1821;50.936;6.854;2023-03-25T04:25:48;8.90;99.90
3614;DHT22;1821;50.936;6.854;2023-03-25T04:26:35;9.00;99.90
3614;DHT22;1821;50.936;6.854;2023-03-25T04:27:18;9.20;99.90
3614;DHT22;1821;50.936;6.854;2023-03-25T04:28:00;8.60;1.00
3614;DHT22;1821;50.936;6.854;2023-03-25T04:28:42;9.10;99.90
3614;DHT22;1821;50.936;6.854;2023-03-25T04:29:25;9.00;1.00
3614;DHT22;1821;50.936;6.854;2023-03-25T04:30:08;9.10;99.90
3614;DHT22;1821;50.936;6.854;2023-03-25T04:30:50;9.00;1.00
3614;DHT22;1821;50.936;6.854;2023-03-25T04:31:36;8.90;99.90
3614;DHT22;1821;50.936;6.854;2023-03-25T04:32:29;9.00;99.90
3614;DHT22;1821;50.936;6.854;2023-03-25T04:33:14;9.10;1.00
3614;DHT22;1821;50.936;6.854;2023-03-25T04:33:57;9.30;99.90
3614;DHT22;1821;50.936;6.854;2023-03-25T04:34:39;9.00;99.90
3614;DHT22;1821;50.936;6.854;2023-03-25T04:35:21;9.20;99.90
3614;DHT22;1821;50.936;6.854;2023-03-25T04:36:03;9.20;99.90
3614;DHT22;1821;50.936;6.854;2023-03-25T04:36:48;9.00;99.90
3614;DHT22;1821;50.936;6.854;2023-03-25T04:37:32;8.80;99.90
3614;DHT22;1821;50.936;6.854;2023-03-25T04:38:18;9.10;99.90
3614;DHT22;1821;50.936;6.854;2023-03-25T04:39:00;8.80;1.00
3614;DHT22;1821;50.936;6.854;2023-03-25T04:39:42;9.00;1.00
3614;DHT22;1821;50.936;6.854;2023-03-25T04:40:24;9.30;1.00
3614;DHT22;1821;50.936;6.854;2023-03-25T04:41:09;9.00;99.90
3614;DHT22;1821;50.936;6.854;2023-03-25T04:41:52;10.30;1.00
3614;DHT22;1821;50.936;6.854;2023-03-25T04:42:34;8.90;99.90
3614;DHT22;1821;50.936;6.854;2023-03-25T04:43:20;9.10;99.90
3614;DHT22;1821;50.936;6.854;2023-03-25T04:44:02;9.00;1.00
3614;DHT22;1821;50.936;6.854;2023-03-25T04:44:48;8.90;1.00
3614;DHT22;1821;50.936;6.854;2023-03-25T04:45:30;9.30;99.90
3614;DHT22;1821;50.936;6.854;2023-03-25T04:46:19;9.30;99.90
3614;DHT22;1821;50.936;6.854;2023-03-25T04:47:02;9.20;99.90
3614;DHT22;1821;50.936;6.854;2023-03-25T04:47:46;9.10;99.90
3614;DHT22;1821;50.936;6.854;2023-03-25T04:48:30;9.20;99.90
3614;DHT22;1821;50.936;6.854;2023-03-25T04:49:19;8.90;99.90
3614;DHT22;1821;50.936;6.854;2023-03-25T04:50:02;8.90;99.90
3614;DHT22;1821;50.936;6.854;2023-03-25T04:50:44;9.10;99.90
3614;DHT22;1821;50.936;6.854;2023-03-25T04:51:26;9.20;99.90
3614;DHT22;1821;50.936;6.854;2023-03-25T04:52:08;9.30;99.90
3614;DHT22;1821;50.936;6.854;2023-03-25T04:52:51;8.90;99.90
3614;DHT22;1821;50.936;6.854;2023-03-25T04:53:33;9.30;99.90
3614;DHT22;1821;50.936;6.854;2023-03-25T04:54:16;9.00;99.90
3614;DHT22;1821;50.936;6.854;2023-03-25T04:54:58;8.80;99.90
3614;DHT22;1821;50.936;6.854;2023-03-25T04:55:44;9.20;99.90
3614;DHT22;1821;50.936;6.854;2023-03-25T04:56:28;8.90;99.90
3614;DHT22;1821;50.936;6.854;2023-03-25T04:57:11;9.30;99.90
3614;DHT22;1821;50.936;6.854;2023-03-25T04:57:53;9.30;99.90
3614;DHT22;1821;50.936;6.854;2023-03-25T04:58:36;9.30;99.90
3614;DHT22;1821;50.936;6.854;2023-03-25T04:59:20;9.10;99.90
3614;DHT22;1821;50.936;6.854;2023-03-25T05:00:05;9.20;99.90
3614;DHT22;1821;50.936;6.854;2023-03-25T05:00:50;9.00;99.90
3614;DHT22;1821;50.936;6.854;2023-03-25T05:01:34;9.40;99.90
3614;DHT22;1821;50.936;6.854;2023-03-25T05:02:18;9.20;99.90
3614;DHT22;1821;50.936;6.854;2023-03-25T05:03:01;9.10;99.90
3614;DHT22;1821;50.936;6.854;2023-03-25T05:03:43;9.00;99.90
3614;DHT22;1821;50.936;6.854;2023-03-25T05:04:25;9.70;99.90
3614;DHT22;1821;50.936;6.854;2023-03-25T05:05:08;9.40;99.90
3614;DHT22;1821;50.936;6.854;2023-03-25T05:05:52;9.20;99.90
3614;DHT22;1821;50.936;6.854;2023-03-25T05:06:38;9.60;99.90
3614;DHT22;1821;50.936;6.854;2023-03-25T05:07:20;9.10;99.90
3614;DHT22;1821;50.936;6.854;2023-03-25T05:08:04;9.30;99.90
3614;DHT22;1821;50.936;6.854;2023-03-25T05:08:46;9.30;99.90
3614;DHT22;1821;50.936;6.854;2023-03-25T05:09:28;9.10;99.90
3614;DHT22;1821;50.936;6.854;2023-03-25T05:10:11;9.30;99.90
3614;DHT22;1821;50.936;6.854;2023-03-25T05:10:54;9.20;99.90
3614;DHT22;1821;50.936;6.854;2023-03-25T05:11:37;9.00;99.90
3614;DHT22;1821;50.936;6.854;2023-03-25T05:12:20;9.00;99.90
3614;DHT22;1821;50.936;6.854;2023-03-25T05:13:06;9.20;99.90
3614;DHT22;1821;50.936;6.854;2023-03-25T05:13:48;9.00;99.90
3614;DHT22;1821;50.936;6.854;2023-03-25T05:14:31;9.30;99.90
3614;DHT22;1821;50.936;6.854;2023-03-25T05:15:15;9.20;99.90
3614;DHT22;1821;50.936;6.854;2023-03-25T05:16:00;9.30;99.90
3614;DHT22;1821;50.936;6.854;2023-03-25T05:16:44;9.00;99.90
3614;DHT22;1821;50.936;6.854;2023-03-25T05:17:27;9.30;99.90
3614;DHT22;1821;50.936;6.854;2023-03-25T05:18:12;9.00;99.90
3614;DHT22;1821;50.936;6.854;2023-03-25T05:18:54;9.50;99.90
3614;DHT22;1821;50.936;6.854;2023-03-25T05:19:36;9.00;99.90
3614;DHT22;1821;50.936;6.854;2023-03-25T05:20:19;9.20;99.90
3614;DHT22;1821;50.936;6.854;2023-03-25T05:21:05;9.20;99.90
3614;DHT22;1821;50.936;6.854;2023-03-25T05:21:50;9.10;99.90
3614;DHT22;1821;50.936;6.854;2023-03-25T05:22:33;9.30;99.90
3614;DHT22;1821;50.936;6.854;2023-03-25T05:23:16;9.20;99.90
3614;DHT22;1821;50.936;6.854;2023-03-25T05:23:59;9.10;99.90
3614;DHT22;1821;50.936;6.854;2023-03-25T05:24:44;9.40;99.90
3614;DHT22;1821;50.936;6.854;2023-03-25T05:25:26;9.40;99.90
3614;DHT22;1821;50.936;6.854;2023-03-25T05:26:10;9.30;99.90
3614;DHT22;1821;50.936;6.854;2023-03-25T05:26:55;9.20;99.90
3614;DHT22;1821;50.936;6.854;2023-03-25T05:27:37;9.50;99.90
3614;DHT22;1821;50.936;6.854;2023-03-25T05:28:19;9.50;99.90
3614;DHT22;1821;50.936;6.854;2023-03-25T05:29:06;9.10;99.90
3614;DHT22;1821;50.936;6.854;2023-03-25T05:29:49;9.30;99.90
3614;DHT22;1821;50.936;6.854;2023-03-25T05:30:31;9.10;99.90
3614;DHT22;1821;50.936;6.854;2023-03-25T05:31:14;9.40;99.90
3614;DHT22;1821;50.936;6.854;2023-03-25T05:31:56;9.60;99.90
3614;DHT22;1821;50.936;6.854;2023-03-25T05:32:38;9.50;99.90
3614;DHT22;1821;50.936;6.854;2023-03-25T05:33:22;9.30;99.90
3614;DHT22;1821;50.936;6.854;2023-03-25T05:34:04;9.00;99.90
3614;DHT22;1821;50.936;6.854;2023-03-25T05:34:52;9.40;99.90
3614;DHT22;1821;50.936;6.854;2023-03-25T05:35:34;9.00;99.90
3614;DHT22;1821;50.936;6.854;2023-03-25T05:36:17;9.10;99.90
3614;DHT22;1821;50.936;6.854;2023-03-25T05:36:59;9.30;99.90
3614;DHT22;1821;50.936;6.854;2023-03-25T05:37:41;9.00;99.90
3614;DHT22;1821;50.936;6.854;2023-03-25T05:38:24;9.00;99.90
3614;DHT22;1821;50.936;6.854;2023-03-25T05:39:06;9.10;99.90
3614;DHT22;1821;50.936;6.854;2023-03-25T05:39:49;9.00;99.90
3614;DHT22;1821;50.936;6.854;2023-03-25T05:40:35;9.80;99.90
3614;DHT22;1821;50.936;6.854;2023-03-25T05:41:17;9.10;99.90
3614;DHT22;1821;50.936;6.854;2023-03-25T05:41:59;9.10;99.90